Time;durP1;ratioP1;P1;durP2;ratioP2;P2;SDS_P1;SDS_P2;PMS_P1;PMS_P2;Temp;Humidity;BMP_temperature;BMP_pressure;BME280_temperature;BME280_humidity;BME280_pressure;Samples;Min_cycle;Max_cycle;Signal;HPM_P1;HPM_P2
2023/04/06 00:00:04;;;;;;;14.18;10.13;;;;;;;-146.25;96.54;52210.03;2072559;28;22287;-70
2023/04/06 00:01:10;;;;;;;14.77;10.35;;;;;;;-146.25;96.11;52242.50;2072385;28;20049;-69
2023/04/06 00:02:12;;;;;;;11.85;9.48;;;;;;;-146.25;96.55;52185.72;2064072;28;20058;-69
2023/04/06 00:03:15;;;;;;;14.65;10.32;;;;;;;-146.25;96.17;52197.88;2064620;28;20042;-69
2023/04/06 00:04:16;;;;;;;16.00;10.88;;;;;;;-146.25;95.97;52210.03;2072943;28;20145;-69
2023/04/06 00:05:20;;;;;;;18.40;10.82;;;;;;;-146.25;95.58;52236.41;2072261;28;22798;-69
2023/04/06 00:06:21;;;;;;;13.35;9.73;;;;;;;-146.25;95.88;52206.00;2072151;28;20042;-69
2023/04/06 00:07:23;;;;;;;13.68;10.40;;;;;;;-146.25;95.43;52220.19;2072312;28;20042;-70
2023/04/06 00:08:26;;;;;;;14.10;10.75;;;;;;;-146.25;96.10;52155.31;2063817;28;21549;-69
2023/04/06 00:09:28;;;;;;;15.52;10.02;;;;;;;-146.25;96.23;52222.22;2064374;28;22561;-70
2023/04/06 00:10:30;;;;;;;16.02;11.02;;;;;;;-146.25;96.46;52208.03;2071665;28;20888;-69
2023/04/06 00:11:32;;;;;;;18.23;11.30;;;;;;;-146.25;96.34;52173.56;2072487;28;20046;-69
2023/04/06 00:12:33;;;;;;;15.52;10.75;;;;;;;-146.25;96.84;52199.91;2072820;28;23454;-69
2023/04/06 00:13:35;;;;;;;17.38;10.57;;;;;;;-146.25;97.43;52199.91;2072654;28;21471;-70
2023/04/06 00:14:37;;;;;;;15.82;11.13;;;;;;;-146.25;97.43;52191.81;2072644;28;20946;-69
2023/04/06 00:15:39;;;;;;;17.73;11.20;;;;;;;-146.25;97.65;52203.97;2072961;28;20164;-70
2023/04/06 00:16:41;;;;;;;20.30;11.05;;;;;;;-146.25;97.09;52208.03;2072523;28;22089;-69
2023/04/06 00:17:42;;;;;;;15.90;11.38;;;;;;;-146.25;97.52;52236.41;2072922;28;20081;-69
2023/04/06 00:18:44;;;;;;;16.75;11.77;;;;;;;-146.25;97.14;52228.28;2072456;28;20395;-69
2023/04/06 00:19:46;;;;;;;16.73;11.70;;;;;;;-146.25;98.00;52189.78;2072828;28;20781;-69
2023/04/06 00:20:50;;;;;;;20.13;12.35;;;;;;;-146.25;97.48;52191.81;2072246;28;24634;-68
2023/04/06 00:21:52;;;;;;;15.90;11.13;;;;;;;-146.25;97.51;52197.88;2072753;28;20518;-69
2023/04/06 00:22:54;;;;;;;17.70;12.25;;;;;;;-146.25;97.22;52191.81;2063744;28;20441;-70
2023/04/06 00:23:56;;;;;;;16.50;10.70;;;;;;;-146.25;96.72;52210.03;2064476;28;20052;-69
2023/04/06 00:24:57;;;;;;;24.17;12.55;;;;;;;-146.25;97.25;52193.81;2072421;28;20970;-69
2023/04/06 00:26:00;;;;;;;16.77;12.18;;;;;;;-146.25;97.38;52226.25;2073027;28;20050;-70
2023/04/06 00:27:01;;;;;;;18.48;12.30;;;;;;;-146.25;97.02;52181.66;2072335;28;20045;-71
2023/04/06 00:28:06;;;;;;;16.58;11.43;;;;;;;-146.25;97.30;52234.38;2072956;28;20128;-69
2023/04/06 00:29:08;;;;;;;17.73;11.10;;;;;;;-146.25;96.96;52262.75;2063569;28;20053;-69
2023/04/06 00:30:10;;;;;;;18.83;11.50;;;;;;;-146.25;97.33;52173.56;2063979;28;20940;-71
2023/04/06 00:31:12;;;;;;;15.90;11.27;;;;;;;-146.25;96.34;52181.66;2072387;28;20050;-71
2023/04/06 00:32:14;;;;;;;15.65;11.65;;;;;;;-146.25;96.43;52201.94;2072993;28;20035;-68
2023/04/06 00:33:16;;;;;;;17.08;11.60;;;;;;;-146.25;97.02;52179.63;2063234;28;20141;-70
2023/04/06 00:34:21;;;;;;;15.73;10.77;;;;;;;-146.25;96.74;52199.91;2064044;28;20074;-71
2023/04/06 00:35:23;;;;;;;14.80;11.18;;;;;;;-146.25;96.98;52149.22;2064119;28;20062;-70
2023/04/06 00:36:25;;;;;;;17.50;11.73;;;;;;;-146.25;97.48;52214.09;2063935;28;22819;-69
2023/04/06 00:37:27;;;;;;;18.85;11.77;;;;;;;-146.25;97.89;52226.25;2071746;28;20087;-69
2023/04/06 00:38:29;;;;;;;16.17;11.98;;;;;;;-146.25;97.46;52187.75;2064126;28;20035;-70
2023/04/06 00:39:31;;;;;;;15.68;10.82;;;;;;;-146.25;97.46;52238.44;2063207;28;20119;-69
2023/04/06 00:40:34;;;;;;;17.80;11.63;;;;;;;-146.25;97.41;52195.84;2072938;28;20042;-69
2023/04/06 00:41:36;;;;;;;16.23;11.75;;;;;;;-146.25;97.32;52214.09;2071224;28;20160;-68
2023/04/06 00:42:38;;;;;;;16.23;11.77;;;;;;;-146.25;97.91;52206.00;2072281;28;20125;-69
2023/04/06 00:43:40;;;;;;;18.73;13.77;;;;;;;-146.25;97.86;52218.16;2063684;28;20047;-69
2023/04/06 00:44:42;;;;;;;21.85;12.55;;;;;;;-146.25;98.02;52181.66;2064044;28;20047;-69
2023/04/06 00:45:44;;;;;;;16.55;12.45;;;;;;;-146.25;97.82;52195.84;2063673;28;20051;-69
2023/04/06 00:46:46;;;;;;;17.85;12.50;;;;;;;-146.25;97.83;52220.19;2064287;28;20031;-69
2023/04/06 00:47:48;;;;;;;20.13;12.65;;;;;;;-146.25;98.22;52206.00;2072493;28;20039;-69
2023/04/06 00:48:50;;;;;;;14.80;11.52;;;;;;;-146.25;98.63;52195.84;2056013;28;20046;-69
2023/04/06 00:49:54;;;;;;;17.98;12.75;;;;;;;-146.25;98.37;52179.63;2056206;28;20046;-69
2023/04/06 00:50:57;;;;;;;16.35;12.00;;;;;;;-146.25;98.14;52189.78;2063815;28;20043;-69
2023/04/06 00:51:59;;;;;;;15.80;12.13;;;;;;;-146.25;98.75;52222.22;2064244;28;20136;-69
2023/04/06 00:53:01;;;;;;;19.60;13.25;;;;;;;-146.25;99.24;52212.06;2071594;28;20042;-70
2023/04/06 00:54:03;;;;;;;18.55;12.77;;;;;;;-146.25;99.57;52197.88;2071624;28;20128;-69
2023/04/06 00:55:07;;;;;;;16.92;12.05;;;;;;;-146.25;99.54;52185.72;2063676;28;20043;-68
2023/04/06 00:56:14;;;;;;;15.60;10.48;;;;;;;-146.25;99.36;52216.13;2056405;28;20901;-69
2023/04/06 00:57:27;;;;;;;19.27;13.07;;;;;;;-146.25;99.77;52222.22;2065691;28;20046;-69
2023/04/06 00:58:30;;;;;;;17.85;13.10;;;;;;;-146.25;100.00;52228.28;2071450;28;20054;-69
2023/04/06 00:59:40;;;;;;;21.95;13.65;;;;;;;-146.25;100.00;52212.06;2072036;28;20101;-69
2023/04/06 01:00:44;;;;;;;19.70;14.02;;;;;;;-146.25;99.90;52242.50;2063373;28;20923;-69
2023/04/06 01:01:51;;;;;;;21.42;13.45;;;;;;;-146.25;99.75;52230.31;2056486;28;20036;-69
2023/04/06 01:03:08;;;;;;;22.52;14.48;;;;;;;-146.25;100.00;52208.03;2057746;28;20039;-69
2023/04/06 01:04:14;;;;;;;18.10;13.18;;;;;;;-146.25;100.00;52210.03;2064199;28;20085;-69
2023/04/06 01:05:16;;;;;;;19.13;13.63;;;;;;;-146.25;100.00;52183.69;2062635;28;20810;-68
2023/04/06 01:06:25;;;;;;;20.00;13.20;;;;;;;-146.25;100.00;52218.16;2064654;28;20789;-69
2023/04/06 01:07:35;;;;;;;19.80;13.60;;;;;;;-146.25;100.00;52195.84;2063631;28;20228;-68
2023/04/06 01:08:42;;;;;;;19.63;13.52;;;;;;;-146.25;100.00;52208.03;2064424;28;21080;-69
2023/04/06 01:09:53;;;;;;;21.10;14.20;;;;;;;-146.25;100.00;52226.25;2071444;28;20039;-69
2023/04/06 01:11:01;;;;;;;21.27;15.13;;;;;;;-146.25;100.00;52189.78;2055465;28;20881;-69
2023/04/06 01:12:06;;;;;;;22.52;15.35;;;;;;;-146.25;100.00;52212.06;2057465;28;20035;-69
2023/04/06 01:13:09;;;;;;;24.05;15.57;;;;;;;-146.25;100.00;52193.81;2063160;28;20047;-69
2023/04/06 01:14:27;;;;;;;21.77;15.82;;;;;;;-146.25;100.00;52230.31;2066131;28;20039;-69
2023/04/06 01:15:35;;;;;;;23.13;15.75;;;;;;;-146.25;100.00;52169.50;2055449;28;20107;-69
2023/04/06 01:16:40;;;;;;;22.60;15.77;;;;;;;-146.25;100.00;52246.53;2049059;28;20115;-69
2023/04/06 01:17:48;;;;;;;21.85;15.48;;;;;;;-146.25;100.00;52163.41;2057351;28;20062;-69
2023/04/06 01:18:51;;;;;;;27.35;16.50;;;;;;;-146.25;100.00;52222.22;2055182;28;20047;-69
2023/04/06 01:19:57;;;;;;;23.02;16.23;;;;;;;-146.25;100.00;52222.22;2064493;28;20868;-69
2023/04/06 01:21:03;;;;;;;24.52;15.85;;;;;;;-146.25;100.00;52230.31;2063719;28;20094;-69
2023/04/06 01:22:06;;;;;;;24.02;16.00;;;;;;;-146.25;100.00;52226.25;2063592;28;20908;-69
2023/04/06 01:23:19;;;;;;;21.48;16.98;;;;;;;-146.25;100.00;52206.00;2063420;28;20051;-69
2023/04/06 01:24:22;;;;;;;23.38;16.33;;;;;;;-146.25;100.00;52199.91;2063941;28;20066;-69
2023/04/06 01:25:38;;;;;;;24.50;17.05;;;;;;;-146.25;100.00;52226.25;2071220;28;20065;-69
2023/04/06 01:26:43;;;;;;;24.27;17.13;;;;;;;-146.25;100.00;52210.03;2063593;28;20190;-69
2023/04/06 01:27:45;;;;;;;22.58;16.38;;;;;;;-146.25;100.00;52210.03;2063560;28;20043;-69
2023/04/06 01:28:56;;;;;;;24.60;17.02;;;;;;;-146.25;100.00;52195.84;2063649;28;20189;-69
2023/04/06 01:30:02;;;;;;;25.13;17.27;;;;;;;-146.25;100.00;52193.81;2064040;28;20117;-69
2023/04/06 01:31:21;;;;;;;26.58;17.15;;;;;;;-146.25;100.00;52167.47;2063167;28;20159;-69
2023/04/06 01:32:28;;;;;;;25.33;16.63;;;;;;;-146.25;100.00;52197.88;2064097;28;20154;-69
2023/04/06 01:33:31;;;;;;;22.88;16.80;;;;;;;-146.25;100.00;52216.13;2071530;28;20058;-69
2023/04/06 01:34:41;;;;;;;21.98;16.35;;;;;;;-146.25;100.00;52234.38;2060419;28;20758;-69
2023/04/06 01:35:43;;;;;;;22.48;16.17;;;;;;;-146.25;100.00;52210.03;2063794;28;20053;-68
2023/04/06 01:36:51;;;;;;;23.98;15.70;;;;;;;-146.25;100.00;52206.00;2063160;28;20063;-69
2023/04/06 01:38:03;;;;;;;24.80;16.58;;;;;;;-146.25;100.00;52175.56;2065198;28;20062;-69
2023/04/06 01:39:07;;;;;;;21.63;16.05;;;;;;;-146.25;100.00;52191.81;2063338;28;20049;-69
2023/04/06 01:40:13;;;;;;;25.38;16.08;;;;;;;-146.25;100.00;52185.72;2055601;28;20169;-69
2023/04/06 01:41:20;;;;;;;20.95;16.00;;;;;;;-146.25;99.79;52208.03;2056102;28;20143;-69
2023/04/06 01:42:26;;;;;;;23.00;15.88;;;;;;;-146.25;99.95;52185.72;2063791;28;20039;-69
2023/04/06 01:43:27;;;;;;;22.52;16.88;;;;;;;-146.25;100.00;52214.09;2063312;28;20079;-69
2023/04/06 01:44:41;;;;;;;23.42;16.73;;;;;;;-146.25;99.87;52210.03;2056880;28;20947;-71
2023/04/06 01:45:52;;;;;;;22.17;16.25;;;;;;;-146.25;99.37;52244.50;2056320;28;20040;-70
2023/04/06 01:46:56;;;;;;;19.90;14.68;;;;;;;-146.25;99.38;52214.09;2056092;28;20171;-69
2023/04/06 01:47:58;;;;;;;24.20;16.27;;;;;;;-146.25;99.91;52222.22;2063452;28;20047;-69
2023/04/06 01:49:02;;;;;;;23.15;15.02;;;;;;;-146.25;99.09;52203.97;2055698;28;20051;-71
2023/04/06 01:50:09;;;;;;;20.05;14.27;;;;;;;-146.25;99.56;52210.03;2056145;28;20834;-71
2023/04/06 01:51:18;;;;;;;25.80;16.63;;;;;;;-146.25;100.00;52175.56;2063340;28;20031;-70
2023/04/06 01:52:26;;;;;;;21.63;15.85;;;;;;;-146.25;100.00;52206.00;2064223;28;20074;-71
2023/04/06 01:53:28;;;;;;;22.05;15.93;;;;;;;-146.25;100.00;52220.19;2063178;28;20042;-70
2023/04/06 01:54:35;;;;;;;20.73;15.75;;;;;;;-146.25;99.62;52236.41;2064187;28;20124;-70
2023/04/06 01:56:04;;;;;;;24.05;16.00;;;;;;;-146.25;99.87;52216.13;2068453;28;20955;-70
2023/04/06 01:57:10;;;;;;;21.77;15.68;;;;;;;-146.25;99.46;52187.75;2071084;28;20916;-70
2023/04/06 01:58:22;;;;;;;23.45;15.82;;;;;;;-146.25;99.54;52208.03;2071288;28;20169;-70
2023/04/06 01:59:26;;;;;;;21.65;16.17;;;;;;;-146.25;99.24;52206.00;2063347;28;21019;-70
2023/04/06 02:00:28;;;;;;;24.17;16.73;;;;;;;-146.25;99.55;52201.94;2063997;28;20121;-70
2023/04/06 02:01:30;;;;;;;22.92;16.20;;;;;;;-146.25;98.86;52254.66;2071237;28;20168;-70
2023/04/06 02:02:35;;;;;;;22.77;16.55;;;;;;;-146.25;98.63;52214.09;2063227;28;20824;-70
2023/04/06 02:03:42;;;;;;;21.15;16.10;;;;;;;-146.25;98.45;52206.00;2064590;28;20325;-70
2023/04/06 02:04:47;;;;;;;21.30;15.40;;;;;;;-146.25;98.06;52222.22;2062805;28;20909;-69
2023/04/06 02:05:49;;;;;;;23.27;16.33;;;;;;;-146.25;97.46;52236.41;2055289;28;20086;-70
2023/04/06 02:06:58;;;;;;;20.55;15.32;;;;;;;-146.25;97.70;52214.09;2056143;28;20050;-70
2023/04/06 02:08:03;;;;;;;23.67;15.23;;;;;;;-146.25;97.30;52230.31;2047140;28;20115;-69
2023/04/06 02:09:10;;;;;;;21.60;15.50;;;;;;;-146.25;97.36;52208.03;2049174;28;20047;-69
2023/04/06 02:10:16;;;;;;;22.52;15.63;;;;;;;-146.25;97.18;52177.59;2047170;28;20963;-70
2023/04/06 02:11:18;;;;;;;23.83;15.70;;;;;;;-146.25;96.83;52201.94;2056392;28;20529;-70
2023/04/06 02:12:24;;;;;;;22.58;15.48;;;;;;;-146.25;96.77;52222.22;2055735;28;20039;-70
2023/04/06 02:13:26;;;;;;;23.02;15.52;;;;;;;-146.25;96.98;52254.66;2054838;28;21021;-69
2023/04/06 02:14:30;;;;;;;24.85;15.65;;;;;;;-146.25;96.35;52210.03;2055313;28;20051;-69
2023/04/06 02:15:34;;;;;;;22.52;16.50;;;;;;;-146.25;96.61;52183.69;2055546;28;20043;-70
2023/04/06 02:16:36;;;;;;;19.67;15.73;;;;;;;-146.25;96.56;52206.00;2062875;28;20231;-70
2023/04/06 02:17:38;;;;;;;22.75;15.55;;;;;;;-146.25;96.12;52238.44;2063373;28;20066;-69
2023/04/06 02:18:40;;;;;;;25.10;15.70;;;;;;;-146.25;95.97;52258.72;2063556;28;20248;-70
2023/04/06 02:19:41;;;;;;;22.63;15.95;;;;;;;-146.25;96.17;52228.28;2071276;28;20038;-70
2023/04/06 02:20:44;;;;;;;22.45;14.93;;;;;;;-146.25;96.48;52199.91;2063067;28;20042;-70
2023/04/06 02:21:46;;;;;;;22.92;15.70;;;;;;;-146.25;96.40;52222.22;2063542;28;20039;-70
2023/04/06 02:22:50;;;;;;;20.92;14.85;;;;;;;-146.25;96.76;52210.03;2072218;28;20034;-69
2023/04/06 02:23:51;;;;;;;20.25;15.60;;;;;;;-146.25;96.87;52197.88;2072003;28;20904;-69
2023/04/06 02:24:53;;;;;;;21.20;15.23;;;;;;;-146.25;96.25;52201.94;2072053;28;20185;-70
2023/04/06 02:25:55;;;;;;;20.92;16.27;;;;;;;-146.25;96.69;52222.22;2072163;28;20876;-70
2023/04/06 02:26:57;;;;;;;23.63;15.60;;;;;;;-146.25;96.54;52181.66;2070904;28;20046;-70
2023/04/06 02:27:59;;;;;;;22.88;15.55;;;;;;;-146.25;96.61;52218.16;2063181;28;20031;-69
2023/04/06 02:29:05;;;;;;;21.05;15.25;;;;;;;-146.25;96.24;52222.22;2063524;28;20133;-70
2023/04/06 02:30:08;;;;;;;20.38;14.85;;;;;;;-146.25;96.58;52234.38;2071207;28;20971;-70
2023/04/06 02:31:14;;;;;;;20.27;14.95;;;;;;;-146.25;96.60;52208.03;2071572;28;20069;-70
2023/04/06 02:32:18;;;;;;;22.75;15.48;;;;;;;-146.25;96.53;52220.19;2071531;28;20125;-69
2023/04/06 02:33:21;;;;;;;20.48;15.40;;;;;;;-146.25;96.03;52214.09;2062947;28;20859;-69
2023/04/06 02:34:23;;;;;;;21.20;14.75;;;;;;;-146.25;96.17;52177.59;2063147;28;21046;-70
2023/04/06 02:35:29;;;;;;;20.20;14.90;;;;;;;-146.25;95.77;52185.72;2071364;28;20038;-69
2023/04/06 02:36:32;;;;;;;19.23;15.27;;;;;;;-146.25;95.88;52208.03;2070839;28;20900;-71
2023/04/06 02:37:34;;;;;;;21.77;16.17;;;;;;;-146.25;95.95;52208.03;2062948;28;20043;-71
2023/04/06 02:38:35;;;;;;;22.10;15.70;;;;;;;-146.25;96.30;52197.88;2063191;28;20043;-71
2023/04/06 02:39:37;;;;;;;24.50;15.55;;;;;;;-146.25;95.86;52210.03;2071103;28;20046;-71
2023/04/06 02:40:45;;;;;;;23.27;15.82;;;;;;;-146.25;95.81;52214.09;2063133;28;20150;-71
2023/04/06 02:42:00;;;;;;;20.48;14.57;;;;;;;-146.25;95.84;52201.94;2064992;28;20078;-71
2023/04/06 02:43:05;;;;;;;21.98;15.10;;;;;;;-146.25;96.11;52195.84;2063131;28;20813;-71
2023/04/06 02:44:08;;;;;;;22.05;15.40;;;;;;;-146.25;96.23;52193.81;2062797;28;20042;-71
2023/04/06 02:45:16;;;;;;;24.73;16.58;;;;;;;-146.25;96.86;52212.06;2062514;28;20043;-71
2023/04/06 02:46:21;;;;;;;20.02;14.80;;;;;;;-146.25;96.58;52234.38;2063017;28;20031;-71
2023/04/06 02:47:25;;;;;;;21.55;14.93;;;;;;;-146.25;96.13;52218.16;2062752;28;20157;-71
2023/04/06 02:48:30;;;;;;;22.92;14.90;;;;;;;-146.25;96.28;52206.00;2062796;28;20158;-71
2023/04/06 02:49:32;;;;;;;22.80;15.05;;;;;;;-146.25;96.18;52226.25;2062154;28;20045;-69
2023/04/06 02:50:34;;;;;;;25.17;16.48;;;;;;;-146.25;96.27;52226.25;2047316;28;20924;-69
2023/04/06 02:51:40;;;;;;;20.60;15.05;;;;;;;-146.25;95.54;52226.25;2063629;28;20043;-71
2023/04/06 02:52:53;;;;;;;20.75;13.32;;;;;;;-146.25;94.08;52250.59;2062956;28;20039;-71
2023/04/06 02:53:55;;;;;;;20.38;14.02;;;;;;;-146.25;93.27;52281.00;2063092;28;20125;-67
2023/04/06 02:54:57;;;;;;;19.23;13.65;;;;;;;-146.25;93.26;52220.19;2063876;28;20039;-69
2023/04/06 02:56:02;;;;;;;15.52;12.68;;;;;;;-146.25;93.21;52226.25;2070944;28;20058;-71
2023/04/06 02:57:15;;;;;;;20.67;13.38;;;;;;;-146.25;92.98;52201.94;2062687;28;20105;-71
2023/04/06 02:58:20;;;;;;;19.20;13.80;;;;;;;-146.25;92.17;52199.91;2055354;28;20059;-71
2023/04/06 02:59:27;;;;;;;19.73;12.90;;;;;;;-146.25;92.46;52234.38;2055668;28;20044;-71
2023/04/06 03:00:37;;;;;;;17.95;13.57;;;;;;;-146.25;92.79;52193.81;2055973;28;20185;-71
2023/04/06 03:01:39;;;;;;;18.80;13.45;;;;;;;-146.25;93.20;52185.72;2063061;28;20035;-70
2023/04/06 03:02:41;;;;;;;20.38;14.10;;;;;;;-146.25;93.00;52226.25;2070898;28;20042;-71
2023/04/06 03:03:47;;;;;;;17.83;13.45;;;;;;;-146.25;93.23;52222.22;2063055;28;20145;-71
2023/04/06 03:04:56;;;;;;;21.75;14.27;;;;;;;-146.25;93.17;52214.09;2056344;28;20047;-71
2023/04/06 03:06:04;;;;;;;18.30;13.48;;;;;;;-146.25;93.01;52189.78;2063935;28;20178;-70
2023/04/06 03:07:06;;;;;;;20.13;13.75;;;;;;;-146.25;93.16;52240.47;2063037;28;20051;-71
2023/04/06 03:08:12;;;;;;;17.70;13.27;;;;;;;-146.25;92.56;52199.91;2055623;28;20047;-69
2023/04/06 03:09:17;;;;;;;19.25;13.48;;;;;;;-146.25;92.75;52246.53;2055393;28;20941;-71
2023/04/06 03:10:20;;;;;;;20.27;14.25;;;;;;;-146.25;92.87;52230.31;2055491;28;20071;-70
2023/04/06 03:11:23;;;;;;;18.23;13.50;;;;;;;-146.25;93.07;52246.53;2055140;28;20174;-70
2023/04/06 03:12:26;;;;;;;17.98;13.23;;;;;;;-146.25;93.14;52224.25;2054570;28;20039;-71
2023/04/06 03:13:46;;;;;;;16.73;11.82;;;;;;;-146.25;93.25;52212.06;2057032;28;20044;-70
2023/04/06 03:14:48;;;;;;;18.00;13.38;;;;;;;-146.25;92.91;52197.88;2063586;28;20145;-71
2023/04/06 03:15:50;;;;;;;17.65;12.98;;;;;;;-146.25;93.26;52218.16;2070874;28;20144;-70
2023/04/06 03:16:54;;;;;;;21.52;14.13;;;;;;;-146.25;93.46;52236.41;2062875;28;20047;-70
2023/04/06 03:17:58;;;;;;;17.05;12.68;;;;;;;-146.25;93.77;52212.06;2063673;28;20042;-71
2023/04/06 03:19:33;;;;;;;21.52;13.70;;;;;;;-146.25;94.33;52212.06;2038478;29;20052;-71
2023/04/06 03:20:39;;;;;;;20.15;13.57;;;;;;;-146.25;94.39;52203.97;2062188;28;20081;-70
2023/04/06 03:21:43;;;;;;;22.35;13.30;;;;;;;-146.25;94.64;52218.16;2070975;28;20037;-70
2023/04/06 03:22:47;;;;;;;15.93;12.93;;;;;;;-146.25;94.82;52234.38;2062463;28;20182;-70
2023/04/06 03:23:51;;;;;;;18.90;14.18;;;;;;;-146.25;95.02;52216.13;2063113;28;20129;-70
2023/04/06 03:24:52;;;;;;;20.15;14.00;;;;;;;-146.25;95.31;52212.06;2062553;28;20050;-71
2023/04/06 03:25:55;;;;;;;21.05;14.98;;;;;;;-146.25;96.32;52234.38;2063046;28;20043;-71
2023/04/06 03:26:56;;;;;;;20.73;14.35;;;;;;;-146.25;96.06;52210.03;2062698;28;20035;-71
2023/04/06 03:27:58;;;;;;;23.10;15.48;;;;;;;-146.25;96.25;52216.13;2062765;28;20774;-71
2023/04/06 03:29:01;;;;;;;22.10;14.85;;;;;;;-146.25;96.32;52230.31;2063706;28;20097;-72
2023/04/06 03:30:06;;;;;;;21.67;14.77;;;;;;;-146.25;96.19;52250.59;2056504;28;20199;-71
2023/04/06 03:31:09;;;;;;;20.52;14.77;;;;;;;-146.25;95.89;52234.38;2056560;28;20902;-71
2023/04/06 03:32:31;;;;;;;18.88;13.85;;;;;;;-146.25;95.87;52226.25;2066525;28;20120;-71
2023/04/06 03:33:33;;;;;;;21.55;14.77;;;;;;;-146.25;96.38;52222.22;2073250;28;20244;-71
2023/04/06 03:34:36;;;;;;;23.13;14.07;;;;;;;-146.25;95.98;52214.09;2064031;28;20194;-71
2023/04/06 03:35:40;;;;;;;22.00;14.98;;;;;;;-146.25;96.04;52216.13;2064319;28;20043;-71
2023/04/06 03:36:42;;;;;;;20.75;14.48;;;;;;;-146.25;95.90;52250.59;2072905;28;20038;-72
2023/04/06 03:37:44;;;;;;;20.35;14.65;;;;;;;-146.25;95.90;52195.84;2073120;28;20046;-72
2023/04/06 03:38:46;;;;;;;22.05;14.68;;;;;;;-146.25;95.71;52240.47;2072833;28;20819;-72
2023/04/06 03:39:48;;;;;;;22.15;14.75;;;;;;;-146.25;95.68;52197.88;2072239;28;20049;-72
2023/04/06 03:40:55;;;;;;;19.33;13.75;;;;;;;-146.25;95.78;52218.16;2064416;28;20169;-72
2023/04/06 03:42:00;;;;;;;20.80;14.18;;;;;;;-146.25;95.61;52214.09;2063824;28;20101;-70
2023/04/06 03:43:07;;;;;;;19.27;13.90;;;;;;;-146.25;95.23;52216.13;2057079;28;20043;-70
2023/04/06 03:44:12;;;;;;;19.40;12.88;;;;;;;-146.25;94.82;52210.03;2056264;28;20039;-70
2023/04/06 03:45:15;;;;;;;18.73;13.88;;;;;;;-146.25;94.44;52230.31;2064324;28;20050;-71
2023/04/06 03:46:26;;;;;;;19.33;13.70;;;;;;;-146.25;94.51;52210.03;2064205;28;20050;-71
2023/04/06 03:47:30;;;;;;;19.65;12.95;;;;;;;-146.25;93.83;52244.50;2056879;28;20158;-71
2023/04/06 03:48:37;;;;;;;19.85;12.55;;;;;;;-146.25;93.51;52222.22;2056208;28;20059;-71
2023/04/06 03:49:40;;;;;;;19.05;13.60;;;;;;;-146.25;93.74;52210.03;2064418;28;20035;-71
2023/04/06 03:50:45;;;;;;;17.67;12.57;;;;;;;-146.25;93.44;52193.81;2064110;28;20051;-71
2023/04/06 03:51:49;;;;;;;19.08;13.90;;;;;;;-146.25;93.08;52224.25;2064254;28;20055;-71
2023/04/06 03:52:51;;;;;;;18.08;12.77;;;;;;;-146.25;93.02;52197.88;2071837;28;20039;-71
2023/04/06 03:53:55;;;;;;;18.77;13.82;;;;;;;-146.25;93.11;52171.53;2072460;28;20046;-72
2023/04/06 03:54:57;;;;;;;18.10;12.50;;;;;;;-146.25;93.09;52222.22;2072080;28;20105;-71
2023/04/06 03:55:59;;;;;;;18.08;13.18;;;;;;;-146.25;93.07;52222.22;2072562;28;21042;-71
2023/04/06 03:57:04;;;;;;;17.83;13.52;;;;;;;-146.25;92.92;52222.22;2071783;28;20165;-71
2023/04/06 03:58:06;;;;;;;17.77;13.52;;;;;;;-146.25;92.77;52185.72;2072642;28;20912;-71
2023/04/06 03:59:07;;;;;;;18.02;13.43;;;;;;;-146.25;92.90;52242.50;2072132;28;20871;-71
2023/04/06 04:00:10;;;;;;;18.25;13.57;;;;;;;-146.25;92.77;52224.25;2073100;28;20145;-71
2023/04/06 04:01:15;;;;;;;18.60;13.15;;;;;;;-146.25;92.61;52197.88;2073147;28;20042;-71
2023/04/06 04:02:17;;;;;;;18.77;13.52;;;;;;;-146.25;92.50;52222.22;2073004;28;20135;-71
2023/04/06 04:03:19;;;;;;;16.83;13.15;;;;;;;-146.25;92.62;52252.63;2072079;28;20054;-71
2023/04/06 04:04:22;;;;;;;18.60;13.10;;;;;;;-146.25;92.44;52214.09;2072704;28;20047;-72
2023/04/06 04:05:25;;;;;;;18.25;13.60;;;;;;;-146.25;92.54;52222.22;2072645;28;20981;-71
2023/04/06 04:06:27;;;;;;;17.92;13.02;;;;;;;-146.25;92.34;52230.31;2072857;28;20046;-71
2023/04/06 04:07:29;;;;;;;17.73;13.40;;;;;;;-146.25;91.27;52224.25;2073021;28;20825;-70
2023/04/06 04:08:36;;;;;;;20.02;13.52;;;;;;;-146.25;91.45;52201.94;2071840;28;20034;-71
2023/04/06 04:09:41;;;;;;;18.52;13.65;;;;;;;-146.25;90.95;52201.94;2055827;28;20055;-71
2023/04/06 04:10:42;;;;;;;17.20;12.52;;;;;;;-146.25;90.96;52238.44;2057033;28;20802;-71
2023/04/06 04:11:44;;;;;;;17.60;13.35;;;;;;;-146.25;91.20;52216.13;2071785;28;20089;-71
2023/04/06 04:12:46;;;;;;;20.08;13.07;;;;;;;-146.25;91.13;52242.50;2063969;28;20948;-71
2023/04/06 04:13:50;;;;;;;19.08;14.05;;;;;;;-146.25;91.17;52197.88;2063984;28;20085;-71
2023/04/06 04:14:52;;;;;;;20.30;13.80;;;;;;;-146.25;90.38;52218.16;2071981;28;20038;-71
2023/04/06 04:15:54;;;;;;;20.40;12.60;;;;;;;-146.25;90.64;52258.72;2072327;28;20042;-71
2023/04/06 04:16:55;;;;;;;20.58;13.20;;;;;;;-146.25;90.38;52187.75;2063547;28;20832;-71
2023/04/06 04:17:57;;;;;;;19.50;13.23;;;;;;;-146.25;90.49;52232.34;2063426;28;20050;-71
2023/04/06 04:18:59;;;;;;;20.25;12.73;;;;;;;-146.25;90.48;52214.09;2072275;28;20034;-71
2023/04/06 04:20:01;;;;;;;17.17;12.48;;;;;;;-146.25;90.51;52230.31;2072725;28;20034;-71
2023/04/06 04:21:03;;;;;;;16.60;12.88;;;;;;;-146.25;90.34;52222.22;2073068;28;20030;-71
2023/04/06 04:22:08;;;;;;;17.27;12.32;;;;;;;-146.25;90.26;52210.03;2063597;28;20039;-73
2023/04/06 04:23:13;;;;;;;17.00;12.45;;;;;;;-146.25;90.40;52232.34;2056369;28;20891;-72
2023/04/06 04:24:15;;;;;;;16.17;11.98;;;;;;;-146.25;90.47;52262.75;2064134;28;20038;-71
2023/04/06 04:25:19;;;;;;;16.70;12.18;;;;;;;-146.25;90.49;52238.44;2072130;28;20054;-71
2023/04/06 04:26:23;;;;;;;17.60;11.90;;;;;;;-146.25;90.38;52248.56;2064345;28;20042;-72
2023/04/06 04:27:25;;;;;;;18.80;13.15;;;;;;;-146.25;90.38;52214.09;2064115;28;20069;-71
2023/04/06 04:28:27;;;;;;;16.05;12.38;;;;;;;-146.25;90.34;52240.47;2071900;28;20892;-71
2023/04/06 04:29:30;;;;;;;19.13;12.65;;;;;;;-146.25;90.39;52228.28;2064304;28;20094;-72
2023/04/06 04:30:37;;;;;;;16.75;12.10;;;;;;;-146.25;90.09;52210.03;2056298;28;20107;-73
2023/04/06 04:31:45;;;;;;;17.33;12.73;;;;;;;-146.25;90.13;52232.34;2054773;28;20043;-71
2023/04/06 04:32:53;;;;;;;18.75;11.75;;;;;;;-146.25;90.05;52197.88;2048340;28;20154;-72
2023/04/06 04:33:59;;;;;;;19.90;13.27;;;;;;;-146.25;90.39;52234.38;2048147;28;20051;-71
2023/04/06 04:35:05;;;;;;;16.30;11.77;;;;;;;-146.25;90.38;52236.41;2064747;28;20035;-71
2023/04/06 04:36:13;;;;;;;19.00;12.60;;;;;;;-146.25;90.14;52210.03;2062822;28;20872;-70
2023/04/06 04:37:17;;;;;;;16.50;12.85;;;;;;;-146.25;90.77;52195.84;2055934;28;20150;-71
2023/04/06 04:38:24;;;;;;;19.88;13.30;;;;;;;-146.25;90.61;52252.63;2071913;28;20046;-71
2023/04/06 04:39:32;;;;;;;17.45;12.07;;;;;;;-146.25;90.10;52185.72;2071250;28;20035;-71
2023/04/06 04:40:40;;;;;;;16.42;12.38;;;;;;;-146.25;89.85;52248.56;2054700;28;20031;-71
2023/04/06 04:41:45;;;;;;;15.02;12.40;;;;;;;-146.25;90.00;52197.88;2055658;28;20047;-71
2023/04/06 04:42:47;;;;;;;21.13;12.60;;;;;;;-146.25;89.02;52210.03;2047424;28;20126;-71
2023/04/06 04:43:59;;;;;;;17.30;11.45;;;;;;;-146.25;88.73;52252.63;2065296;28;20043;-71
2023/04/06 04:45:01;;;;;;;17.80;12.50;;;;;;;-146.25;88.76;52187.75;2063600;28;20117;-72
2023/04/06 04:46:13;;;;;;;18.40;12.35;;;;;;;-146.25;88.39;52228.28;2065403;28;20818;-71
2023/04/06 04:47:17;;;;;;;17.08;12.65;;;;;;;-146.25;88.40;52232.34;2055020;28;20043;-72
2023/04/06 04:48:20;;;;;;;16.73;12.23;;;;;;;-146.25;88.79;52208.03;2040914;28;20138;-71
2023/04/06 04:49:29;;;;;;;18.23;12.70;;;;;;;-146.25;88.61;52246.53;2057285;28;20051;-71